createdAt,value
2017-11-21T00:02:01.605Z,85.45
2017-11-21T00:04:29.235Z,85.54
2017-11-21T00:06:57.088Z,85.77
2017-11-21T00:09:24.677Z,85.29
2017-11-21T00:11:52.333Z,85.18
2017-11-21T00:14:19.929Z,85.39
2017-11-21T00:16:47.544Z,85.59
2017-11-21T00:19:15.127Z,85.44
2017-11-21T00:21:43.065Z,85.17
2017-11-21T00:24:10.690Z,85.73
2017-11-21T00:26:38.334Z,85.87
2017-11-21T00:29:06.259Z,85.81
2017-11-21T00:31:33.843Z,85.88
2017-11-21T00:34:01.443Z,86.07
2017-11-21T00:36:29.057Z,86.18
2017-11-21T00:38:56.659Z,86.08
2017-11-21T00:41:24.299Z,85.54
2017-11-21T00:43:51.899Z,85.24
2017-11-21T00:46:19.806Z,85.37
2017-11-21T00:48:47.425Z,85.07
2017-11-21T00:51:15.010Z,84.72
2017-11-21T00:53:42.892Z,85.15
2017-11-21T00:56:10.521Z,85.06
2017-11-21T00:58:38.110Z,85.54
2017-11-21T01:01:05.736Z,86.08
2017-11-21T01:03:33.339Z,85.90
2017-11-21T01:06:00.973Z,85.90
2017-11-21T01:08:28.559Z,86.03
2017-11-21T01:10:56.140Z,86.03
2017-11-21T01:13:23.763Z,86.27
2017-11-21T01:15:51.383Z,86.19
2017-11-21T01:18:19.011Z,86.54
2017-11-21T01:20:46.620Z,86.18
2017-11-21T01:23:14.201Z,86.16
2017-11-21T01:25:41.837Z,85.96
2017-11-21T01:28:09.762Z,86.21
2017-11-21T01:30:37.730Z,86.46
2017-11-21T01:33:05.377Z,86.68
2017-11-21T01:35:32.957Z,86.54
2017-11-21T01:38:00.580Z,85.96
2017-11-21T01:40:28.591Z,85.91
2017-11-21T01:42:56.214Z,85.86
2017-11-21T01:45:23.808Z,86.21
2017-11-21T01:47:51.389Z,86.20
2017-11-21T01:50:18.993Z,85.94
2017-11-21T01:52:46.593Z,86.21
2017-11-21T01:55:14.219Z,86.44
2017-11-21T01:57:41.829Z,86.34
2017-11-21T02:00:09.453Z,86.03
2017-11-21T02:02:37.068Z,85.49
2017-11-21T02:05:04.714Z,84.87
2017-11-21T02:07:32.340Z,85.21
2017-11-21T02:09:59.924Z,85.83
2017-11-21T02:12:27.545Z,85.75
2017-11-21T02:14:55.157Z,85.57
2017-11-21T02:17:22.746Z,85.54
2017-11-21T02:19:50.370Z,85.88
2017-11-21T02:22:17.969Z,85.93
2017-11-21T02:24:45.565Z,86.34
2017-11-21T02:27:13.175Z,86.53
2017-11-21T02:29:40.761Z,86.37
2017-11-21T02:32:08.398Z,86.29
2017-11-21T02:34:35.987Z,86.15
2017-11-21T02:37:03.577Z,86.32
2017-11-21T02:39:31.237Z,86.64
2017-11-21T02:41:59.141Z,86.47
2017-11-21T02:44:26.765Z,86.73
2017-11-21T02:46:54.359Z,86.59
2017-11-21T02:49:21.941Z,85.83
2017-11-21T02:51:49.567Z,86.37
2017-11-21T02:54:17.155Z,86.44
2017-11-21T02:56:44.787Z,86.95
2017-11-21T02:59:12.378Z,86.51
2017-11-21T03:01:39.969Z,86.21
2017-11-21T03:04:07.583Z,86.38
2017-11-21T03:06:35.221Z,86.78
2017-11-21T03:09:02.845Z,86.94
2017-11-21T03:11:30.433Z,87.08
2017-11-21T03:13:58.022Z,87.10
2017-11-21T03:16:25.630Z,86.91
2017-11-21T03:18:53.245Z,87.09
2017-11-21T03:21:32.714Z,87.01
2017-11-21T03:24:12.098Z,86.64
2017-11-21T03:26:39.744Z,86.98
2017-11-21T03:29:07.321Z,86.84
2017-11-21T03:31:34.950Z,87.27
2017-11-21T03:34:02.567Z,87.73
2017-11-21T03:36:30.195Z,87.67
2017-11-21T03:38:57.817Z,87.49
2017-11-21T03:41:25.406Z,87.43
2017-11-21T03:43:53.005Z,87.29
2017-11-21T03:46:20.613Z,87.92
2017-11-21T03:48:48.197Z,87.66
2017-11-21T03:51:15.845Z,87.90
2017-11-21T03:53:43.438Z,87.88
2017-11-21T03:56:11.063Z,87.92
2017-11-21T03:58:38.683Z,87.96
2017-11-21T04:01:07.307Z,88.15
2017-11-21T04:03:34.987Z,88.05
2017-11-21T04:06:02.588Z,88.20
2017-11-21T04:08:30.180Z,88.11
2017-11-21T04:10:57.798Z,87.60
2017-11-21T04:13:25.389Z,86.57
2017-11-21T04:15:53.008Z,87.03
2017-11-21T04:18:20.604Z,87.17
2017-11-21T04:20:48.482Z,86.50
2017-11-21T04:23:16.102Z,86.61
2017-11-21T04:25:43.697Z,86.91
2017-11-21T04:28:11.341Z,86.89
2017-11-21T04:30:38.925Z,87.28
2017-11-21T04:33:06.553Z,87.32
2017-11-21T04:35:34.162Z,87.38
2017-11-21T04:38:01.771Z,86.93
2017-11-21T04:40:29.384Z,86.00
2017-11-21T04:42:57.005Z,86.59
2017-11-21T04:45:24.636Z,86.68
2017-11-21T04:47:52.489Z,86.34
2017-11-21T04:50:20.092Z,87.00
2017-11-21T04:52:47.712Z,87.06
2017-11-21T04:55:15.325Z,87.15
2017-11-21T04:57:42.971Z,87.34
2017-11-21T05:00:10.586Z,87.33
2017-11-21T05:02:38.212Z,87.52
2017-11-21T05:05:05.871Z,87.62
2017-11-21T05:07:33.807Z,87.65
2017-11-21T05:10:01.457Z,87.19
2017-11-21T05:12:29.049Z,87.54
2017-11-21T05:14:56.638Z,87.87
2017-11-21T05:17:24.358Z,88.13
2017-11-21T05:19:51.933Z,88.00
2017-11-21T05:22:19.563Z,88.27
2017-11-21T05:24:47.441Z,88.48
2017-11-21T05:27:15.025Z,88.84
2017-11-21T05:29:42.676Z,88.85
2017-11-21T05:32:26.140Z,88.92
2017-11-21T05:34:53.770Z,89.74
2017-11-21T05:37:21.409Z,89.78
2017-11-21T05:39:48.997Z,89.94
2017-11-21T05:42:16.612Z,90.36
2017-11-21T05:44:44.318Z,90.25
2017-11-21T05:47:11.959Z,90.12
2017-11-21T05:49:39.644Z,89.96
2017-11-21T05:52:07.234Z,90.00
2017-11-21T05:54:35.008Z,90.03
2017-11-21T05:57:02.608Z,89.76
2017-11-21T05:59:30.246Z,90.01
2017-11-21T06:01:57.830Z,90.43
2017-11-21T06:04:25.517Z,90.13
2017-11-21T06:06:53.141Z,90.49
2017-11-21T06:09:20.733Z,90.96
2017-11-21T06:11:48.360Z,91.17
2017-11-21T06:14:16.191Z,91.03
2017-11-21T06:16:43.786Z,91.15
2017-11-21T06:19:11.693Z,90.82
2017-11-21T06:21:39.365Z,90.83
2017-11-21T06:24:07.330Z,91.27
2017-11-21T06:26:34.938Z,91.58
2017-11-21T06:29:02.532Z,91.40
2017-11-21T06:31:30.152Z,90.85
2017-11-21T06:33:57.759Z,90.82
2017-11-21T06:36:25.365Z,90.92
2017-11-21T06:38:53.001Z,90.85
2017-11-21T06:41:20.626Z,91.35
2017-11-21T06:43:48.258Z,91.51
2017-11-21T06:46:16.190Z,90.87
2017-11-21T06:48:43.794Z,90.50
2017-11-21T06:51:11.735Z,90.49
2017-11-21T06:53:39.403Z,91.20
2017-11-21T06:56:07.024Z,91.49
2017-11-21T06:58:34.625Z,91.59
2017-11-21T07:01:02.213Z,91.37
2017-11-21T07:03:29.838Z,91.36
2017-11-21T07:05:57.704Z,91.11
2017-11-21T07:08:25.369Z,91.41
2017-11-21T07:10:52.959Z,91.21
2017-11-21T07:13:20.598Z,90.82
2017-11-21T07:15:48.562Z,91.22
2017-11-21T07:18:16.165Z,91.45
2017-11-21T07:20:43.793Z,91.48
2017-11-21T07:23:11.401Z,90.36
2017-11-21T07:25:39.319Z,90.46
2017-11-21T07:28:06.939Z,90.65
2017-11-21T07:30:34.543Z,90.59
2017-11-21T07:33:02.203Z,90.69
2017-11-21T07:35:29.812Z,91.02
2017-11-21T07:38:00.405Z,91.00
2017-11-21T07:40:28.074Z,90.85
2017-11-21T07:42:55.697Z,90.29
2017-11-21T07:45:23.348Z,90.92
2017-11-21T07:47:51.181Z,90.56
2017-11-21T07:50:18.824Z,90.50
2017-11-21T07:52:46.482Z,90.27
2017-11-21T07:55:14.167Z,90.25
2017-11-21T07:57:41.837Z,90.51
2017-11-21T08:00:09.476Z,90.36
2017-11-21T08:02:37.440Z,90.32
2017-11-21T08:05:05.073Z,90.21
2017-11-21T08:07:32.656Z,90.02
2017-11-21T08:10:00.295Z,90.02
2017-11-21T08:12:27.898Z,90.45
2017-11-21T08:14:55.750Z,90.05
2017-11-21T08:17:23.617Z,90.19
2017-11-21T08:19:51.443Z,90.50
2017-11-21T08:22:19.407Z,90.33
2017-11-21T08:24:47.778Z,90.03
2017-11-21T08:27:15.403Z,90.23
2017-11-21T08:29:43.063Z,90.05
2017-11-21T08:32:10.700Z,89.88
2017-11-21T08:34:38.367Z,89.16
2017-11-21T08:37:05.973Z,89.37
2017-11-21T08:39:33.937Z,89.29
2017-11-21T08:42:01.564Z,89.35
2017-11-21T08:44:29.212Z,89.50
2017-11-21T08:46:56.901Z,89.56
2017-11-21T08:49:24.485Z,88.70
2017-11-21T08:51:52.230Z,88.98
2017-11-21T08:54:19.878Z,88.57
2017-11-21T08:56:57.082Z,88.75
2017-11-21T08:59:32.855Z,89.37
2017-11-21T09:02:08.255Z,89.59
2017-11-21T09:05:04.041Z,89.79
2017-11-21T09:07:31.855Z,89.74
2017-11-21T09:10:06.127Z,89.68
2017-11-21T09:12:43.050Z,89.39
2017-11-21T09:15:12.369Z,89.70
2017-11-21T09:17:39.989Z,89.78
2017-11-21T09:20:07.614Z,89.74
2017-11-21T09:22:35.236Z,89.75
2017-11-21T09:25:02.868Z,89.43
2017-11-21T09:27:34.585Z,89.13
2017-11-21T09:30:02.492Z,88.69
2017-11-21T09:32:30.150Z,88.25
2017-11-21T09:34:57.775Z,88.07
2017-11-21T09:37:25.517Z,87.86
2017-11-21T09:39:53.211Z,88.16
2017-11-21T09:42:21.175Z,87.88
2017-11-21T09:44:48.773Z,87.90
2017-11-21T09:47:16.541Z,87.50
2017-11-21T09:49:44.189Z,87.44
2017-11-21T09:52:11.828Z,87.96
2017-11-21T09:54:39.464Z,87.64
2017-11-21T09:57:07.071Z,87.45
2017-11-21T09:59:34.711Z,87.62
2017-11-21T10:02:02.306Z,87.11
2017-11-21T10:04:30.001Z,87.55
2017-11-21T10:06:57.628Z,87.90
2017-11-21T10:09:25.566Z,87.76
2017-11-21T10:11:53.228Z,87.61
2017-11-21T10:14:21.092Z,87.96
2017-11-21T10:16:48.697Z,87.91
2017-11-21T10:19:16.339Z,87.71
2017-11-21T10:21:44.117Z,87.67
2017-11-21T10:24:11.763Z,87.75
2017-11-21T10:26:39.390Z,88.00
2017-11-21T10:29:06.984Z,88.30
2017-11-21T10:31:34.566Z,88.52
2017-11-21T10:34:03.060Z,88.28
2017-11-21T10:36:30.649Z,88.12
2017-11-21T10:38:58.224Z,87.51
2017-11-21T10:41:25.909Z,87.84
2017-11-21T10:43:53.526Z,88.09
2017-11-21T10:46:21.170Z,88.45
2017-11-21T10:48:49.101Z,88.48
2017-11-21T10:51:16.690Z,88.40
2017-11-21T10:53:44.313Z,87.74
2017-11-21T10:56:12.189Z,88.13
2017-11-21T10:58:40.172Z,88.33
2017-11-21T11:01:07.827Z,88.51
2017-11-21T11:03:35.407Z,88.69
2017-11-21T11:06:03.044Z,88.41
2017-11-21T11:08:30.919Z,88.55
2017-11-21T11:10:58.558Z,87.95
2017-11-21T11:13:26.157Z,87.73
2017-11-21T11:15:53.748Z,87.92
2017-11-21T11:18:21.353Z,88.28
2017-11-21T11:20:49.000Z,87.78
2017-11-21T11:23:16.916Z,88.21
2017-11-21T11:25:44.594Z,87.94
2017-11-21T11:28:12.188Z,88.16
2017-11-21T11:30:39.810Z,88.32
2017-11-21T11:33:07.520Z,88.31
2017-11-21T11:35:35.416Z,88.25
2017-11-21T11:38:03.042Z,88.31
2017-11-21T11:40:30.630Z,88.24
2017-11-21T11:42:58.248Z,88.31
2017-11-21T11:45:25.830Z,88.31
2017-11-21T11:47:53.456Z,88.07
2017-11-21T11:50:21.087Z,88.15
2017-11-21T11:52:48.758Z,88.11
2017-11-21T11:55:16.415Z,87.75
2017-11-21T11:57:45.060Z,87.38
2017-11-21T12:00:15.330Z,87.46
2017-11-21T12:02:43.393Z,87.57
2017-11-21T12:05:11.033Z,86.80
2017-11-21T12:07:38.693Z,85.73
2017-11-21T12:10:09.709Z,85.57
2017-11-21T12:12:38.649Z,85.87
2017-11-21T12:15:06.264Z,86.47
2017-11-21T12:17:33.870Z,86.89
2017-11-21T12:20:01.497Z,86.68
2017-11-21T12:22:29.080Z,86.98
2017-11-21T12:24:57.079Z,87.33
2017-11-21T12:27:24.693Z,86.08
2017-11-21T12:29:52.287Z,86.52
2017-11-21T12:32:19.918Z,87.03
2017-11-21T12:34:47.627Z,87.06
2017-11-21T12:37:15.287Z,87.42
2017-11-21T12:39:42.885Z,87.49
2017-11-21T12:42:10.484Z,87.54
2017-11-21T12:44:38.135Z,87.19
2017-11-21T12:47:05.731Z,86.85
2017-11-21T12:49:33.372Z,87.01
2017-11-21T12:52:01.300Z,85.95
2017-11-21T12:54:28.971Z,85.56
2017-11-21T12:56:56.631Z,85.75
2017-11-21T12:59:24.301Z,85.69
2017-11-21T13:01:52.162Z,85.70
2017-11-21T13:04:20.004Z,86.16
2017-11-21T13:06:47.655Z,86.21
2017-11-21T13:09:15.523Z,86.25
2017-11-21T13:11:43.385Z,86.63
2017-11-21T13:14:11.048Z,86.91
2017-11-21T13:16:38.666Z,87.06
2017-11-21T13:19:07.182Z,87.04
2017-11-21T13:21:34.849Z,86.72
2017-11-21T13:24:02.487Z,86.33
2017-11-21T13:26:30.129Z,86.90
2017-11-21T13:28:57.749Z,86.98
2017-11-21T13:31:25.359Z,87.12
2017-11-21T13:33:52.974Z,87.24
2017-11-21T13:36:20.607Z,87.54
2017-11-21T13:38:48.501Z,87.39
2017-11-21T13:41:16.131Z,87.21
2017-11-21T13:43:43.730Z,86.68
2017-11-21T13:46:11.373Z,86.20
2017-11-21T13:48:39.259Z,86.23
2017-11-21T13:51:06.890Z,86.26
2017-11-21T13:53:34.521Z,86.38
2017-11-21T13:56:02.173Z,86.27
2017-11-21T13:58:29.805Z,86.28
2017-11-21T14:00:57.977Z,86.51
2017-11-21T14:03:25.651Z,86.52
2017-11-21T14:05:53.249Z,86.27
2017-11-21T14:08:20.836Z,86.17
2017-11-21T14:10:48.462Z,85.49
2017-11-21T14:13:16.297Z,85.13
2017-11-21T14:15:43.918Z,85.85
2017-11-21T14:18:11.526Z,86.35
2017-11-21T14:20:39.108Z,86.54
2017-11-21T14:23:06.717Z,86.04
2017-11-21T14:25:34.613Z,86.28
2017-11-21T14:28:02.249Z,86.60
2017-11-21T14:30:29.838Z,86.59
2017-11-21T14:32:57.451Z,86.56
2017-11-21T14:35:25.068Z,86.75
2017-11-21T14:37:52.934Z,86.96
2017-11-21T14:40:20.594Z,87.14
2017-11-21T14:42:48.183Z,86.96
2017-11-21T14:45:15.834Z,86.91
2017-11-21T14:47:43.454Z,87.50
2017-11-21T14:50:11.033Z,87.28
2017-11-21T14:52:38.673Z,87.21
2017-11-21T14:55:06.259Z,88.03
2017-11-21T14:57:33.863Z,88.20
2017-11-21T15:00:01.797Z,88.17
2017-11-21T15:02:29.419Z,87.65
2017-11-21T15:04:57.087Z,87.29
2017-11-21T15:07:24.873Z,87.65
2017-11-21T15:09:52.499Z,87.55
2017-11-21T15:12:20.142Z,87.89
2017-11-21T15:14:47.774Z,87.65
2017-11-21T15:17:15.986Z,87.69
2017-11-21T15:19:43.596Z,87.96
2017-11-21T15:22:11.177Z,88.09
2017-11-21T15:24:38.841Z,87.94
2017-11-21T15:27:06.426Z,88.29
2017-11-21T15:29:34.044Z,88.58
2017-11-21T15:32:01.635Z,88.72
2017-11-21T15:34:29.223Z,89.01
2017-11-21T15:36:56.849Z,89.20
2017-11-21T15:39:24.430Z,88.52
2017-11-21T15:41:52.065Z,88.81
2017-11-21T15:44:19.676Z,89.32
2017-11-21T15:46:47.335Z,89.60
2017-11-21T15:49:14.980Z,89.71
2017-11-21T15:51:42.562Z,89.42
2017-11-21T15:54:10.196Z,89.59
2017-11-21T15:56:37.801Z,89.74
2017-11-21T15:59:05.404Z,89.29
2017-11-21T16:01:33.384Z,89.15
2017-11-21T16:04:00.976Z,88.84
2017-11-21T16:06:28.596Z,88.93
2017-11-21T16:08:56.181Z,89.46
2017-11-21T16:11:23.791Z,89.94
2017-11-21T16:13:51.398Z,89.67
2017-11-21T16:16:19.006Z,90.07
2017-11-21T16:18:46.625Z,90.15
2017-11-21T16:21:14.222Z,90.07
2017-11-21T16:23:41.818Z,90.32
2017-11-21T16:26:09.697Z,90.20
2017-11-21T16:28:37.579Z,90.38
2017-11-21T16:31:05.230Z,90.44
2017-11-21T16:33:32.818Z,90.11
2017-11-21T16:36:00.417Z,90.08
2017-11-21T16:38:28.027Z,90.51
2017-11-21T16:40:55.619Z,90.43
2017-11-21T16:43:23.240Z,90.20
2017-11-21T16:45:50.868Z,90.35
2017-11-21T16:48:18.496Z,90.06
2017-11-21T16:50:46.163Z,89.86
2017-11-21T16:53:13.770Z,90.02
2017-11-21T16:55:41.432Z,90.24
2017-11-21T16:58:09.021Z,90.51
2017-11-21T17:00:36.604Z,90.71
2017-11-21T17:03:04.214Z,90.82
2017-11-21T17:05:31.803Z,91.32
2017-11-21T17:07:59.434Z,91.16
2017-11-21T17:10:27.330Z,91.89
2017-11-21T17:12:54.912Z,91.87
2017-11-21T17:15:22.522Z,92.09
2017-11-21T17:17:50.131Z,92.21
2017-11-21T17:20:17.769Z,92.13
2017-11-21T17:22:45.374Z,91.96
2017-11-21T17:25:13.301Z,91.70
2017-11-21T17:27:40.927Z,91.84
2017-11-21T17:30:08.519Z,92.01
2017-11-21T17:32:36.210Z,92.02
2017-11-21T17:35:03.912Z,91.73
2017-11-21T17:37:31.500Z,91.69
2017-11-21T17:39:59.212Z,91.90
2017-11-21T17:42:26.894Z,92.03
2017-11-21T17:44:54.491Z,91.96
2017-11-21T17:47:22.092Z,91.89
2017-11-21T17:49:49.729Z,92.08
2017-11-21T17:52:17.323Z,92.17
2017-11-21T17:54:44.965Z,92.07
2017-11-21T17:57:12.605Z,92.23
2017-11-21T17:59:40.305Z,91.76
2017-11-21T18:02:07.950Z,91.81
2017-11-21T18:04:35.535Z,92.23
2017-11-21T18:07:03.229Z,92.09
2017-11-21T18:09:30.882Z,92.35
2017-11-21T18:11:58.473Z,92.30
2017-11-21T18:14:26.096Z,92.29
2017-11-21T18:16:53.680Z,92.47
2017-11-21T18:19:21.432Z,92.53
2017-11-21T18:21:49.081Z,92.39
2017-11-21T18:24:16.885Z,92.52
2017-11-21T18:26:44.508Z,92.24
2017-11-21T18:29:12.113Z,92.57
2017-11-21T18:31:39.746Z,92.71
2017-11-21T18:34:07.325Z,92.75
2017-11-21T18:36:34.936Z,92.85
2017-11-21T18:39:02.550Z,92.96
2017-11-21T18:41:30.166Z,92.80
2017-11-21T18:43:57.797Z,92.81
2017-11-21T18:46:25.420Z,92.65
2017-11-21T18:48:53.021Z,92.50
2017-11-21T18:51:20.638Z,92.43
2017-11-21T18:53:48.352Z,92.48
2017-11-21T18:56:16.030Z,92.73
2017-11-21T18:58:43.653Z,93.11
2017-11-21T19:01:11.245Z,93.25
2017-11-21T19:03:38.886Z,93.24
2017-11-21T19:06:06.491Z,93.39
2017-11-21T19:08:34.127Z,93.44
2017-11-21T19:11:01.732Z,93.39
2017-11-21T19:13:29.350Z,93.53
2017-11-21T19:15:56.974Z,92.82
2017-11-21T19:18:24.641Z,92.82
2017-11-21T19:20:52.269Z,92.84
2017-11-21T19:23:19.878Z,93.25
2017-11-21T19:25:49.185Z,93.49
2017-11-21T19:28:17.682Z,93.53
2017-11-21T19:30:45.274Z,93.75
2017-11-21T19:33:13.017Z,93.67
2017-11-21T19:35:40.614Z,93.79
2017-11-21T19:38:08.202Z,93.63
2017-11-21T19:40:35.820Z,93.51
2017-11-21T19:43:03.436Z,93.50
2017-11-21T19:45:31.088Z,93.42
2017-11-21T19:47:58.690Z,93.76
2017-11-21T19:50:26.309Z,93.09
2017-11-21T19:52:53.934Z,93.60
2017-11-21T19:55:21.535Z,93.80
2017-11-21T19:57:49.173Z,93.75
2017-11-21T20:00:16.774Z,93.56
2017-11-21T20:02:44.365Z,93.68
2017-11-21T20:05:11.981Z,93.87
2017-11-21T20:07:39.591Z,93.71
2017-11-21T20:10:07.244Z,93.83
2017-11-21T20:12:43.938Z,93.82
2017-11-21T20:15:11.747Z,93.91
2017-11-21T20:17:39.360Z,94.01
2017-11-21T20:20:07.028Z,93.74
2017-11-21T20:22:34.667Z,93.61
2017-11-21T20:25:02.250Z,93.65
2017-11-21T20:30:06.977Z,93.61
2017-11-21T20:32:39.838Z,93.77
2017-11-21T20:35:16.163Z,93.79
2017-11-21T20:37:44.237Z,93.93
2017-11-21T20:40:12.175Z,93.83
2017-11-21T20:42:40.386Z,93.56
2017-11-21T20:45:08.632Z,93.63
2017-11-21T20:47:37.567Z,93.81
2017-11-21T20:50:07.854Z,93.55
2017-11-21T20:52:35.471Z,93.51
2017-11-21T20:55:03.075Z,93.42
2017-11-21T20:57:30.709Z,93.47
2017-11-21T20:59:58.304Z,93.27
2017-11-21T21:02:25.961Z,93.33
2017-11-21T21:04:53.602Z,93.54
2017-11-21T21:07:21.237Z,93.66
2017-11-21T21:09:48.932Z,93.75
2017-11-21T21:12:16.570Z,93.76
2017-11-21T21:14:44.231Z,94.03
2017-11-21T21:17:11.820Z,93.85
2017-11-21T21:19:39.426Z,93.76
2017-11-21T21:22:07.092Z,93.81
2017-11-21T21:24:34.738Z,93.69
2017-11-21T21:27:02.381Z,93.53
2017-11-21T21:29:30.059Z,93.55
2017-11-21T21:31:57.662Z,93.63
2017-11-21T21:34:25.287Z,93.50
2017-11-21T21:36:52.884Z,93.56
2017-11-21T21:39:20.525Z,93.42
2017-11-21T21:41:48.257Z,93.53
2017-11-21T21:44:16.121Z,93.82
2017-11-21T21:46:43.786Z,93.93
2017-11-21T21:49:11.394Z,93.66
2017-11-21T21:51:41.715Z,93.70
2017-11-21T21:54:09.334Z,93.82
2017-11-21T21:56:36.917Z,93.70
2017-11-21T21:59:04.773Z,93.76
2017-11-21T22:01:32.647Z,93.80
2017-11-21T22:04:00.309Z,93.62
2017-11-21T22:06:27.940Z,93.71
2017-11-21T22:08:55.572Z,93.48
2017-11-21T22:11:23.184Z,93.48
2017-11-21T22:13:50.806Z,93.71
2017-11-21T22:16:19.635Z,93.90
2017-11-21T22:18:47.209Z,93.67
2017-11-21T22:21:14.819Z,93.58
2017-11-21T22:23:42.445Z,93.68
2017-11-21T22:26:10.044Z,93.69
2017-11-21T22:28:37.697Z,93.61
2017-11-21T22:31:05.286Z,93.65
2017-11-21T22:33:32.865Z,93.76
2017-11-21T22:36:00.474Z,93.39
2017-11-21T22:38:28.079Z,93.54
2017-11-21T22:40:55.697Z,93.75
2017-11-21T22:43:23.619Z,93.49
2017-11-21T22:45:51.198Z,93.54
2017-11-21T22:48:19.060Z,93.88
2017-11-21T22:50:46.639Z,94.20
2017-11-21T22:53:14.262Z,94.37
2017-11-21T22:55:42.855Z,94.26
2017-11-21T22:58:10.465Z,94.25
2017-11-21T23:00:38.386Z,94.04
2017-11-21T23:03:05.977Z,94.01
2017-11-21T23:05:33.632Z,93.68
2017-11-21T23:08:01.579Z,93.73
2017-11-21T23:10:29.175Z,93.93
2017-11-21T23:12:56.802Z,94.21
2017-11-21T23:15:24.385Z,94.42
2017-11-21T23:17:52.058Z,94.22
2017-11-21T23:20:19.895Z,94.48
2017-11-21T23:22:47.487Z,94.42
2017-11-21T23:25:15.097Z,94.50
2017-11-21T23:27:42.684Z,94.79
2017-11-21T23:30:10.313Z,94.81
2017-11-21T23:32:38.210Z,94.85
2017-11-21T23:35:05.795Z,94.69
2017-11-21T23:37:33.406Z,94.65
2017-11-21T23:40:01.298Z,94.69
2017-11-21T23:42:28.933Z,94.53
2017-11-21T23:44:56.530Z,94.47
2017-11-21T23:47:24.126Z,94.64
2017-11-21T23:49:51.738Z,94.69
2017-11-21T23:52:19.352Z,94.63
2017-11-21T23:54:47.012Z,94.81
2017-11-21T23:57:14.630Z,94.82
2017-11-21T23:59:42.228Z,94.47
